Time;durP1;ratioP1;P1;durP2;ratioP2;P2;SDS_P1;SDS_P2;PMS_P1;PMS_P2;Temp;Humidity;BMP_temperature;BMP_pressure;BME280_temperature;BME280_humidity;BME280_pressure;Samples;Min_cycle;Max_cycle;Signal;HPM_P1;HPM_P2
2022/04/23 00:00:11;;;;;;;17.92;6.45;;;;;;;;;;6295431;22;20035;-49
2022/04/23 00:02:39;;;;;;;25.40;9.77;;;;;;;;;;6296498;22;20018;-50
2022/04/23 00:05:04;;;;;;;22.60;9.23;;;;;;;;;;6294714;22;20046;-52
2022/04/23 00:07:29;;;;;;;17.98;7.80;;;;;;;;;;6294333;22;20174;-52
2022/04/23 00:09:55;;;;;;;30.05;8.18;;;;;;;;;;6294042;22;20011;-50
2022/04/23 00:12:20;;;;;;;18.45;8.63;;;;;;;;;;6295143;22;20397;-50
2022/04/23 00:14:45;;;;;;;14.05;7.90;;;;;;;;;;6294476;22;20034;-58
2022/04/23 00:17:11;;;;;;;15.50;7.30;;;;;;;;;;6295222;22;20008;-50
2022/04/23 00:19:36;;;;;;;17.00;8.57;;;;;;;;;;6294702;22;20000;-54
2022/04/23 00:22:01;;;;;;;19.75;8.20;;;;;;;;;;6294700;22;20007;-50
2022/04/23 00:24:27;;;;;;;19.65;8.27;;;;;;;;;;6294289;22;20650;-50
2022/04/23 00:26:52;;;;;;;13.75;8.30;;;;;;;;;;6293494;22;20011;-51
2022/04/23 00:29:17;;;;;;;22.20;7.90;;;;;;;;;;6298094;22;20026;-50
2022/04/23 00:31:42;;;;;;;17.88;7.85;;;;;;;;;;6297183;22;20011;-50
2022/04/23 00:34:07;;;;;;;18.88;8.07;;;;;;;;;;6297936;22;20071;-50
2022/04/23 00:36:33;;;;;;;14.35;8.43;;;;;;;;;;6296656;22;20068;-53
2022/04/23 00:38:59;;;;;;;16.88;8.20;;;;;;;;;;6298225;22;20011;-50
2022/04/23 00:44:08;;;;;;;15.63;7.53;;;;;;;;;;6298561;22;20033;-50
2022/04/23 00:46:34;;;;;;;21.10;8.52;;;;;;;;;;6296055;22;20035;-52
2022/04/23 00:48:59;;;;;;;17.92;8.13;;;;;;;;;;6298689;22;20019;-51
2022/04/23 00:51:28;;;;;;;25.75;10.00;;;;;;;;;;6296648;22;20353;-50
2022/04/23 00:53:53;;;;;;;27.83;9.45;;;;;;;;;;6297069;22;20049;-51
2022/04/23 00:56:19;;;;;;;16.83;8.98;;;;;;;;;;6296146;22;20043;-50
2022/04/23 00:58:44;;;;;;;21.00;9.35;;;;;;;;;;6297798;22;20007;-50
2022/04/23 01:01:10;;;;;;;14.48;7.90;;;;;;;;;;6294807;22;20015;-50
2022/04/23 01:03:36;;;;;;;12.38;7.97;;;;;;;;;;6298345;22;20011;-53
2022/04/23 01:06:01;;;;;;;16.95;8.30;;;;;;;;;;6296523;22;20022;-52
2022/04/23 01:08:27;;;;;;;17.42;9.10;;;;;;;;;;6295471;22;20015;-51
2022/04/23 01:10:52;;;;;;;28.05;8.65;;;;;;;;;;6297670;22;20019;-50
2022/04/23 01:13:17;;;;;;;25.00;8.38;;;;;;;;;;6296887;22;20029;-51
2022/04/23 01:16:21;;;;;;;29.52;9.13;;;;;;;;;;6297098;22;20011;-56
2022/04/23 01:18:46;;;;;;;26.38;9.57;;;;;;;;;;6172213;23;20275;-52
2022/04/23 01:21:13;;;;;;;15.80;8.60;;;;;;;;;;6170536;23;20015;-50
2022/04/23 01:23:40;;;;;;;24.40;10.70;;;;;;;;;;6227883;22;20008;-50
2022/04/23 01:26:07;;;;;;;15.70;8.00;;;;;;;;;;6295330;22;20019;-50
2022/04/23 01:28:33;;;;;;;22.35;8.88;;;;;;;;;;6296962;22;20015;-53
2022/04/23 01:30:59;;;;;;;19.65;8.82;;;;;;;;;;6298132;22;20023;-54
2022/04/23 01:33:24;;;;;;;19.65;9.30;;;;;;;;;;6295402;22;20015;-52
2022/04/23 01:35:49;;;;;;;22.77;9.70;;;;;;;;;;6297298;22;20010;-52
2022/04/23 01:38:15;;;;;;;20.05;10.82;;;;;;;;;;6295924;22;20011;-49
2022/04/23 01:40:40;;;;;;;14.27;8.82;;;;;;;;;;6297464;22;20011;-53
2022/04/23 01:43:06;;;;;;;19.40;9.43;;;;;;;;;;6296739;22;20008;-52
2022/04/23 01:45:31;;;;;;;26.10;10.55;;;;;;;;;;6296432;22;20021;-52
2022/04/23 01:47:57;;;;;;;21.50;9.82;;;;;;;;;;6297089;22;20079;-53
2022/04/23 01:50:22;;;;;;;26.88;9.88;;;;;;;;;;6296774;22;20015;-51
2022/04/23 01:52:47;;;;;;;18.48;10.85;;;;;;;;;;6297092;22;20019;-51
2022/04/23 01:55:13;;;;;;;18.02;9.70;;;;;;;;;;6297190;22;20822;-49
2022/04/23 01:57:39;;;;;;;20.52;10.35;;;;;;;;;;6296809;22;20087;-53
2022/04/23 02:00:08;;;;;;;18.20;10.52;;;;;;;;;;6297871;22;20027;-54
2022/04/23 02:02:36;;;;;;;22.80;10.05;;;;;;;;;;6296571;22;20094;-52
2022/04/23 02:05:02;;;;;;;29.38;11.55;;;;;;;;;;6297062;22;20023;-50
2022/04/23 02:07:27;;;;;;;22.67;12.00;;;;;;;;;;6295336;22;20077;-51
2022/04/23 02:09:52;;;;;;;20.75;10.80;;;;;;;;;;6297233;22;20019;-53
2022/04/23 02:12:18;;;;;;;22.67;11.20;;;;;;;;;;6296279;22;20022;-53
2022/04/23 02:14:44;;;;;;;19.88;11.63;;;;;;;;;;6296620;22;20094;-49
2022/04/23 02:17:10;;;;;;;26.55;12.52;;;;;;;;;;6297182;22;20038;-48
2022/04/23 02:19:35;;;;;;;23.33;11.90;;;;;;;;;;6297487;22;20022;-50
2022/04/23 02:22:00;;;;;;;42.35;13.40;;;;;;;;;;6291012;22;20027;-51
2022/04/23 02:24:25;;;;;;;17.08;11.50;;;;;;;;;;6297809;22;20027;-52
2022/04/23 02:26:51;;;;;;;26.83;12.15;;;;;;;;;;6298265;22;20003;-53
2022/04/23 02:29:16;;;;;;;32.53;12.43;;;;;;;;;;6296524;22;20019;-52
2022/04/23 02:31:41;;;;;;;35.22;11.90;;;;;;;;;;6298965;22;20611;-53
2022/04/23 02:34:06;;;;;;;32.58;12.30;;;;;;;;;;6299509;22;20222;-54
2022/04/23 02:36:32;;;;;;;31.08;12.10;;;;;;;;;;6297869;22;20772;-51
2022/04/23 02:38:58;;;;;;;28.58;11.32;;;;;;;;;;6298560;22;20015;-54
2022/04/23 02:41:24;;;;;;;30.67;11.70;;;;;;;;;;6296000;22;20025;-53
2022/04/23 02:43:50;;;;;;;30.27;13.88;;;;;;;;;;6297512;22;20066;-53
2022/04/23 02:46:16;;;;;;;21.10;10.20;;;;;;;;;;6297679;22;20034;-51
2022/04/23 02:48:42;;;;;;;26.92;11.73;;;;;;;;;;6297653;22;20045;-52
2022/04/23 02:51:08;;;;;;;46.08;12.73;;;;;;;;;;6298102;22;20030;-50
2022/04/23 02:53:34;;;;;;;25.80;12.10;;;;;;;;;;6297878;22;20071;-50
2022/04/23 02:56:02;;;;;;;26.73;11.70;;;;;;;;;;6300041;22;20037;-51
2022/04/23 02:58:28;;;;;;;36.22;12.98;;;;;;;;;;6295969;22;20330;-54
2022/04/23 03:00:53;;;;;;;34.45;11.60;;;;;;;;;;6298187;22;20327;-52
2022/04/23 03:03:19;;;;;;;29.58;12.43;;;;;;;;;;6299259;22;20054;-49
2022/04/23 03:05:44;;;;;;;25.60;11.55;;;;;;;;;;6297389;22;20031;-50
2022/04/23 03:08:11;;;;;;;37.80;12.35;;;;;;;;;;6299128;22;20009;-51
2022/04/23 03:10:36;;;;;;;23.80;11.57;;;;;;;;;;6297472;22;20084;-52
2022/04/23 03:13:01;;;;;;;31.15;12.25;;;;;;;;;;6299281;22;20450;-50
2022/04/23 03:15:27;;;;;;;34.47;11.13;;;;;;;;;;6296883;22;20015;-51
2022/04/23 03:18:06;;;;;;;33.17;11.98;;;;;;;;;;6300513;22;20050;-53
2022/04/23 03:20:32;;;;;;;33.08;11.10;;;;;;;;;;6297883;22;20677;-50
2022/04/23 03:22:57;;;;;;;30.33;11.77;;;;;;;;;;6299493;22;20008;-51
2022/04/23 03:25:22;;;;;;;35.05;14.25;;;;;;;;;;6296564;22;20771;-51
2022/04/23 03:27:47;;;;;;;23.83;12.20;;;;;;;;;;6298712;22;20019;-53
2022/04/23 03:30:13;;;;;;;29.90;14.85;;;;;;;;;;6297723;22;20198;-52
2022/04/23 03:32:38;;;;;;;32.22;15.10;;;;;;;;;;6298779;22;20007;-50
2022/04/23 03:35:05;;;;;;;29.08;13.40;;;;;;;;;;6297198;22;20019;-54
2022/04/23 03:37:30;;;;;;;28.08;13.75;;;;;;;;;;6298669;22;20655;-52
2022/04/23 03:39:56;;;;;;;27.05;13.07;;;;;;;;;;6296315;22;20004;-53
2022/04/23 03:42:21;;;;;;;56.45;14.63;;;;;;;;;;6292194;22;20182;-54
2022/04/23 03:44:46;;;;;;;26.52;12.90;;;;;;;;;;6296749;22;20034;-52
2022/04/23 03:47:11;;;;;;;31.27;13.73;;;;;;;;;;6298405;22;20011;-54
2022/04/23 03:49:37;;;;;;;34.22;14.95;;;;;;;;;;6299244;22;20045;-50
2022/04/23 03:52:02;;;;;;;23.52;13.07;;;;;;;;;;6298099;22;20015;-49
2022/04/23 03:54:28;;;;;;;33.30;14.35;;;;;;;;;;6294813;22;20035;-53
2022/04/23 03:56:53;;;;;;;33.25;13.77;;;;;;;;;;6299019;22;20011;-54
2022/04/23 03:59:23;;;;;;;35.55;15.10;;;;;;;;;;6296800;22;20015;-49
2022/04/23 04:01:49;;;;;;;26.27;14.38;;;;;;;;;;6298996;22;20281;-49
2022/04/23 04:04:14;;;;;;;31.33;14.45;;;;;;;;;;6297228;22;20787;-51
2022/04/23 04:06:40;;;;;;;34.30;13.77;;;;;;;;;;6298166;22;20011;-52
2022/04/23 04:09:05;;;;;;;35.28;15.70;;;;;;;;;;6297273;22;20011;-55
2022/04/23 04:12:01;;;;;;;35.17;15.68;;;;;;;;;;6296948;22;20008;-52
2022/04/23 04:14:16;;;;;;;36.40;14.82;;;;;;;;;;6297263;22;20075;-54
2022/04/23 04:16:41;;;;;;;47.70;15.95;;;;;;;;;;6298621;22;20011;-52
2022/04/23 04:19:07;;;;;;;35.13;15.18;;;;;;;;;;6298697;22;20080;-52
2022/04/23 04:21:32;;;;;;;35.63;15.38;;;;;;;;;;6296447;22;20069;-52
2022/04/23 04:23:58;;;;;;;28.25;15.07;;;;;;;;;;6299034;22;20435;-52
2022/04/23 04:26:23;;;;;;;35.70;16.17;;;;;;;;;;6295791;22;20017;-49
2022/04/23 04:28:49;;;;;;;43.63;16.15;;;;;;;;;;6299022;22;20064;-52
2022/04/23 04:33:58;;;;;;;45.67;17.05;;;;;;;;;;6298188;22;20061;-50
2022/04/23 04:36:23;;;;;;;44.60;16.95;;;;;;;;;;6295458;22;20000;-51
2022/04/23 04:38:48;;;;;;;40.45;16.40;;;;;;;;;;6298755;22;20031;-49
2022/04/23 04:41:14;;;;;;;38.67;16.80;;;;;;;;;;6296224;22;20012;-49
2022/04/23 04:43:39;;;;;;;40.60;16.45;;;;;;;;;;6298967;22;20003;-54
2022/04/23 04:46:04;;;;;;;39.47;17.23;;;;;;;;;;6296284;22;20019;-51
2022/04/23 04:48:30;;;;;;;37.30;15.15;;;;;;;;;;6298141;22;19999;-53
2022/04/23 04:50:55;;;;;;;31.45;16.10;;;;;;;;;;6296022;22;20011;-54
2022/04/23 04:53:20;;;;;;;34.00;16.65;;;;;;;;;;6297952;22;20053;-52
2022/04/23 04:55:45;;;;;;;35.33;15.77;;;;;;;;;;6296716;22;20015;-54
2022/04/23 04:58:11;;;;;;;39.00;15.00;;;;;;;;;;6298127;22;20018;-52
2022/04/23 05:00:36;;;;;;;49.20;17.88;;;;;;;;;;6296306;22;20003;-52
2022/04/23 05:03:01;;;;;;;30.30;17.50;;;;;;;;;;6298420;22;20042;-50
2022/04/23 05:05:27;;;;;;;37.15;15.45;;;;;;;;;;6295008;22;20019;-53
2022/04/23 05:07:52;;;;;;;35.17;16.45;;;;;;;;;;6299176;22;20162;-54
2022/04/23 05:10:17;;;;;;;41.47;14.82;;;;;;;;;;6296133;22;20007;-55
2022/04/23 05:12:42;;;;;;;41.05;16.13;;;;;;;;;;6298775;22;20019;-55
2022/04/23 05:15:08;;;;;;;34.85;15.95;;;;;;;;;;6294888;22;20019;-54
2022/04/23 05:17:36;;;;;;;34.22;15.02;;;;;;;;;;6296788;22;20015;-50
2022/04/23 05:20:02;;;;;;;34.97;14.98;;;;;;;;;;6296310;22;20529;-52
2022/04/23 05:22:27;;;;;;;30.75;15.57;;;;;;;;;;6296008;22;20026;-53
2022/04/23 05:24:52;;;;;;;34.20;15.85;;;;;;;;;;6295743;22;20023;-54
2022/04/23 05:27:17;;;;;;;35.33;15.65;;;;;;;;;;6297761;22;20462;-54
2022/04/23 05:29:43;;;;;;;39.45;15.48;;;;;;;;;;6295790;22;20354;-54
2022/04/23 05:32:08;;;;;;;31.33;15.02;;;;;;;;;;6297761;22;20011;-52
2022/04/23 05:34:35;;;;;;;33.03;14.73;;;;;;;;;;6293764;22;20014;-52
2022/04/23 05:37:00;;;;;;;50.67;15.95;;;;;;;;;;6297611;22;20429;-54
2022/04/23 05:39:25;;;;;;;33.63;15.18;;;;;;;;;;6295197;22;20049;-53
2022/04/23 05:41:50;;;;;;;39.53;14.60;;;;;;;;;;6298139;22;20015;-51
2022/04/23 05:44:16;;;;;;;44.60;16.92;;;;;;;;;;6294540;22;20365;-53
2022/04/23 05:46:41;;;;;;;35.45;14.43;;;;;;;;;;6298448;22;20008;-53
2022/04/23 05:49:06;;;;;;;35.05;14.90;;;;;;;;;;6294560;22;20015;-52
2022/04/23 05:51:32;;;;;;;34.42;13.88;;;;;;;;;;6297369;22;20007;-50
2022/04/23 05:53:57;;;;;;;35.25;14.95;;;;;;;;;;6295923;22;20031;-50
2022/04/23 05:56:23;;;;;;;34.42;14.80;;;;;;;;;;6297407;22;20394;-49
2022/04/23 05:58:48;;;;;;;35.58;13.73;;;;;;;;;;6296954;22;20544;-53
2022/04/23 06:01:14;;;;;;;33.80;14.48;;;;;;;;;;6297110;22;20019;-54
2022/04/23 06:03:41;;;;;;;30.13;13.85;;;;;;;;;;6296686;22;20011;-52
2022/04/23 06:06:06;;;;;;;35.33;14.88;;;;;;;;;;6297475;22;20025;-53
2022/04/23 06:08:31;;;;;;;37.83;14.30;;;;;;;;;;6296002;22;20015;-50
2022/04/23 06:10:57;;;;;;;34.63;13.70;;;;;;;;;;6298446;22;20014;-52
2022/04/23 06:13:22;;;;;;;26.92;12.85;;;;;;;;;;6296258;22;20027;-50
2022/04/23 06:15:47;;;;;;;38.95;16.52;;;;;;;;;;6298320;22;20022;-53
2022/04/23 06:18:13;;;;;;;39.58;15.13;;;;;;;;;;6295551;22;20695;-51
2022/04/23 06:20:38;;;;;;;35.88;15.32;;;;;;;;;;6295559;22;20056;-51
2022/04/23 06:23:04;;;;;;;39.63;15.65;;;;;;;;;;6296026;22;20541;-52
2022/04/23 06:25:30;;;;;;;38.58;15.20;;;;;;;;;;6296362;22;20258;-53
2022/04/23 06:27:56;;;;;;;32.35;14.45;;;;;;;;;;6296134;22;20030;-51
2022/04/23 06:30:21;;;;;;;41.75;15.63;;;;;;;;;;6294485;22;20349;-52
2022/04/23 06:32:47;;;;;;;39.70;14.40;;;;;;;;;;6294671;22;20055;-51
2022/04/23 06:35:12;;;;;;;26.50;13.93;;;;;;;;;;6297421;22;20007;-52
2022/04/23 06:37:39;;;;;;;31.00;14.65;;;;;;;;;;6293422;22;20009;-50
2022/04/23 06:40:05;;;;;;;35.88;12.75;;;;;;;;;;6297040;22;20026;-51
2022/04/23 06:42:30;;;;;;;29.73;15.10;;;;;;;;;;6294633;22;20004;-53
2022/04/23 06:44:56;;;;;;;31.77;14.73;;;;;;;;;;6297188;22;20034;-45
2022/04/23 06:47:21;;;;;;;37.67;15.27;;;;;;;;;;6294818;22;20422;-44
2022/04/23 06:49:46;;;;;;;33.85;13.80;;;;;;;;;;6297347;22;20020;-43
2022/04/23 06:52:11;;;;;;;31.02;13.32;;;;;;;;;;6295302;22;20108;-46
2022/04/23 06:54:37;;;;;;;40.10;14.05;;;;;;;;;;6297792;22;20027;-43
2022/04/23 06:57:02;;;;;;;35.28;13.43;;;;;;;;;;6296096;22;20021;-47
2022/04/23 06:59:27;;;;;;;40.42;15.05;;;;;;;;;;6296827;22;20015;-44
2022/04/23 07:01:52;;;;;;;27.42;13.27;;;;;;;;;;6297029;22;20229;-43
2022/04/23 07:04:18;;;;;;;31.60;13.93;;;;;;;;;;6294930;22;20023;-44
2022/04/23 07:06:43;;;;;;;35.38;15.55;;;;;;;;;;6298032;22;20387;-44
2022/04/23 07:09:08;;;;;;;39.35;16.40;;;;;;;;;;6299261;22;20022;-44
2022/04/23 07:11:33;;;;;;;44.97;16.65;;;;;;;;;;6297245;22;20035;-45
2022/04/23 07:13:59;;;;;;;36.03;13.75;;;;;;;;;;6299789;22;20059;-43
2022/04/23 07:16:24;;;;;;;26.33;13.93;;;;;;;;;;6297177;22;20231;-45
2022/04/23 07:18:52;;;;;;;35.55;15.43;;;;;;;;;;6298679;22;20022;-45
2022/04/23 07:21:17;;;;;;;33.45;13.63;;;;;;;;;;6295509;22;20062;-46
2022/04/23 07:26:27;;;;;;;39.53;14.15;;;;;;;;;;6297081;22;20099;-44
2022/04/23 07:28:52;;;;;;;39.90;14.52;;;;;;;;;;6299747;22;20015;-44
2022/04/23 07:31:17;;;;;;;26.88;13.25;;;;;;;;;;6295396;22;20011;-45
2022/04/23 07:39:12;;;;;;;31.35;13.27;;;;;;;;;;6262661;22;20022;-45
2022/04/23 07:41:37;;;;;;;36.30;11.98;;;;;;;;;;6298054;22;20007;-44
2022/04/23 07:44:02;;;;;;;24.63;13.77;;;;;;;;;;6295884;22;20104;-45
2022/04/23 07:46:28;;;;;;;27.92;12.52;;;;;;;;;;6295605;22;20075;-43
2022/04/23 07:48:54;;;;;;;28.15;13.68;;;;;;;;;;6299267;22;20022;-45
2022/04/23 07:51:20;;;;;;;34.58;12.05;;;;;;;;;;6296707;22;20015;-44
2022/04/23 07:53:45;;;;;;;28.00;11.80;;;;;;;;;;6295406;22;20350;-45
2022/04/23 07:56:10;;;;;;;31.30;12.88;;;;;;;;;;6298254;22;20382;-45
2022/04/23 07:58:35;;;;;;;29.80;12.23;;;;;;;;;;6297168;22;20014;-46
2022/04/23 08:01:01;;;;;;;37.53;13.32;;;;;;;;;;6298610;22;20022;-44
2022/04/23 08:03:27;;;;;;;26.67;12.18;;;;;;;;;;6297319;22;20105;-43
2022/04/23 08:05:52;;;;;;;27.83;12.38;;;;;;;;;;6298358;22;20655;-43
2022/04/23 08:08:18;;;;;;;24.35;11.90;;;;;;;;;;6295350;22;20015;-44
2022/04/23 08:10:44;;;;;;;26.55;12.57;;;;;;;;;;6297844;22;20007;-42
2022/04/23 08:13:09;;;;;;;32.78;13.13;;;;;;;;;;6296324;22;20035;-45
2022/04/23 08:15:34;;;;;;;35.22;14.65;;;;;;;;;;6298785;22;20030;-45
2022/04/23 08:18:01;;;;;;;29.17;13.35;;;;;;;;;;6297225;22;20018;-42
2022/04/23 08:20:27;;;;;;;28.85;12.32;;;;;;;;;;6298215;22;20035;-44
2022/04/23 08:22:52;;;;;;;39.00;15.05;;;;;;;;;;6296810;22;20019;-43
2022/04/23 08:25:18;;;;;;;26.50;13.45;;;;;;;;;;6297090;22;20033;-43
2022/04/23 08:27:47;;;;;;;26.60;14.10;;;;;;;;;;6294866;22;20011;-43
2022/04/23 08:32:57;;;;;;;26.75;13.63;;;;;;;;;;6297664;22;19914;-43
2022/04/23 08:35:23;;;;;;;36.38;13.38;;;;;;;;;;6298164;22;20015;-43
2022/04/23 08:37:50;;;;;;;23.13;12.85;;;;;;;;;;6297166;22;20016;-44
2022/04/23 08:40:16;;;;;;;26.85;14.82;;;;;;;;;;6298129;22;20035;-43
2022/04/23 08:42:41;;;;;;;28.35;14.52;;;;;;;;;;6298018;22;20019;-44
2022/04/23 08:45:07;;;;;;;23.77;11.38;;;;;;;;;;6298209;22;20042;-45
2022/04/23 08:47:35;;;;;;;24.88;15.23;;;;;;;;;;6295720;22;20015;-43
2022/04/23 08:50:01;;;;;;;32.72;16.10;;;;;;;;;;6294102;22;20537;-43
2022/04/23 08:52:32;;;;;;;24.45;13.25;;;;;;;;;;6294798;22;20023;-44
2022/04/23 08:55:01;;;;;;;27.67;13.63;;;;;;;;;;6296108;22;20023;-42
2022/04/23 08:57:28;;;;;;;34.22;15.50;;;;;;;;;;6296104;22;20121;-44
2022/04/23 08:59:56;;;;;;;27.17;16.08;;;;;;;;;;6297022;22;20015;-43
2022/04/23 09:02:22;;;;;;;26.20;16.35;;;;;;;;;;6295952;22;20049;-44
2022/04/23 09:04:48;;;;;;;35.38;15.90;;;;;;;;;;6295826;22;20027;-44
2022/04/23 09:07:32;;;;;;;27.35;14.70;;;;;;;;;;6297371;22;20082;-44
2022/04/23 09:09:57;;;;;;;28.20;14.43;;;;;;;;;;6297110;22;20011;-44
2022/04/23 09:12:24;;;;;;;30.08;16.23;;;;;;;;;;6293547;22;20428;-42
2022/04/23 09:14:49;;;;;;;31.02;13.48;;;;;;;;;;6296685;22;20538;-43
2022/04/23 09:25:56;;;;;;;31.38;14.25;;;;;;;;;;6277528;22;20030;-42
2022/04/23 09:28:22;;;;;;;23.30;13.18;;;;;;;;;;6285976;22;20011;-44
2022/04/23 09:30:51;;;;;;;25.67;13.18;;;;;;;;;;6288312;22;20517;-44
2022/04/23 09:33:17;;;;;;;22.48;10.05;;;;;;;;;;6286252;22;20015;-43
2022/04/23 09:35:55;;;;;;;25.30;13.20;;;;;;;;;;6289658;22;20384;-43
2022/04/23 09:38:20;;;;;;;35.47;13.52;;;;;;;;;;6286951;22;20035;-42
2022/04/23 09:40:53;;;;;;;26.23;14.02;;;;;;;;;;6288706;22;20597;-44
2022/04/23 09:43:25;;;;;;;18.15;9.00;;;;;;;;;;6289165;22;20018;-43
2022/04/23 09:45:58;;;;;;;27.48;13.88;;;;;;;;;;6289361;22;20023;-43
2022/04/23 09:48:23;;;;;;;27.58;12.15;;;;;;;;;;6291577;22;20011;-43
2022/04/23 09:50:49;;;;;;;27.08;12.57;;;;;;;;;;6290123;22;20011;-43
2022/04/23 09:53:18;;;;;;;21.42;14.23;;;;;;;;;;6292321;22;20027;-44
2022/04/23 09:55:47;;;;;;;29.73;13.55;;;;;;;;;;6292395;22;20015;-43
2022/04/23 09:58:13;;;;;;;26.05;13.93;;;;;;;;;;6292283;22;20030;-43
2022/04/23 10:00:42;;;;;;;20.95;14.20;;;;;;;;;;6293159;22;20007;-43
2022/04/23 10:03:08;;;;;;;22.10;12.75;;;;;;;;;;6292340;22;20019;-43
2022/04/23 10:05:39;;;;;;;31.65;14.65;;;;;;;;;;6292157;22;20026;-42
2022/04/23 10:08:12;;;;;;;27.48;13.15;;;;;;;;;;6293301;22;20082;-42
2022/04/23 10:10:57;;;;;;;24.05;13.80;;;;;;;;;;6293918;22;20024;-43
2022/04/23 10:13:24;;;;;;;22.17;13.95;;;;;;;;;;6262454;22;20022;-43
2022/04/23 10:15:51;;;;;;;23.05;13.32;;;;;;;;;;6282799;22;20022;-45
2022/04/23 10:18:17;;;;;;;23.70;11.20;;;;;;;;;;6286917;22;20094;-44
2022/04/23 10:20:53;;;;;;;25.85;14.23;;;;;;;;;;6290556;22;20010;-45
2022/04/23 10:23:19;;;;;;;22.70;13.35;;;;;;;;;;6292507;22;20290;-42
2022/04/23 10:25:47;;;;;;;16.08;8.88;;;;;;;;;;6288047;22;20617;-44
2022/04/23 10:28:12;;;;;;;25.15;14.68;;;;;;;;;;6290677;22;20021;-43
2022/04/23 10:30:38;;;;;;;23.25;11.88;;;;;;;;;;6292137;22;20031;-43
2022/04/23 10:33:22;;;;;;;28.23;17.00;;;;;;;;;;6292091;22;19999;-44
2022/04/23 10:36:01;;;;;;;25.98;14.90;;;;;;;;;;6286069;22;20011;-43
2022/04/23 10:38:26;;;;;;;24.90;14.60;;;;;;;;;;6290478;22;20641;-44
2022/04/23 10:40:55;;;;;;;34.50;16.85;;;;;;;;;;6287037;22;20019;-43
2022/04/23 10:43:20;;;;;;;32.10;15.85;;;;;;;;;;6295351;22;20016;-44
2022/04/23 10:45:45;;;;;;;32.22;14.55;;;;;;;;;;6293193;22;20103;-43
2022/04/23 10:48:30;;;;;;;22.48;15.05;;;;;;;;;;6287145;22;20007;-46
2022/04/23 10:51:04;;;;;;;26.85;16.02;;;;;;;;;;6292370;22;20023;-44
2022/04/23 10:53:37;;;;;;;35.22;16.52;;;;;;;;;;6290103;22;20027;-44
2022/04/23 10:56:06;;;;;;;33.22;16.45;;;;;;;;;;6295812;22;20011;-42
2022/04/23 10:58:32;;;;;;;25.20;15.20;;;;;;;;;;6291099;22;20026;-43
2022/04/23 11:01:16;;;;;;;26.30;15.75;;;;;;;;;;6296079;22;20528;-43
2022/04/23 11:03:43;;;;;;;25.52;15.90;;;;;;;;;;6294369;22;20086;-43
2022/04/23 11:12:16;;;;;;;25.73;16.20;;;;;;;;;;6297646;22;20038;-45
2022/04/23 11:14:44;;;;;;;34.00;19.08;;;;;;;;;;6297634;22;20011;-44
2022/04/23 11:17:13;;;;;;;28.17;17.42;;;;;;;;;;6297583;22;20102;-45
2022/04/23 11:19:39;;;;;;;28.58;17.27;;;;;;;;;;6298212;22;20033;-42
2022/04/23 11:22:04;;;;;;;35.03;17.52;;;;;;;;;;6298040;22;20018;-44
2022/04/23 11:24:30;;;;;;;25.92;17.27;;;;;;;;;;6295149;22;20208;-45
2022/04/23 11:26:56;;;;;;;30.77;18.45;;;;;;;;;;6296653;22;20066;-44
2022/04/23 11:29:21;;;;;;;33.97;18.13;;;;;;;;;;6296765;22;20062;-44
2022/04/23 11:31:53;;;;;;;29.88;17.23;;;;;;;;;;6298133;22;20015;-42
2022/04/23 11:34:19;;;;;;;29.30;17.50;;;;;;;;;;6297235;22;20021;-42
2022/04/23 11:36:44;;;;;;;27.33;17.08;;;;;;;;;;6298642;22;20007;-43
2022/04/23 11:39:11;;;;;;;32.58;18.27;;;;;;;;;;6295970;22;20007;-43
2022/04/23 11:42:02;;;;;;;24.73;16.60;;;;;;;;;;6298402;22;20086;-44
2022/04/23 11:47:11;;;;;;;31.25;17.73;;;;;;;;;;6296029;22;20026;-44
2022/04/23 11:49:37;;;;;;;25.55;17.20;;;;;;;;;;6297407;22;20007;-45
2022/04/23 11:52:06;;;;;;;23.00;15.07;;;;;;;;;;6296008;22;20113;-46
2022/04/23 11:54:33;;;;;;;;;;;;;;;;;;6296835;22;20078;-46
2022/04/23 11:56:58;;;;;;;28.15;17.45;;;;;;;;;;6297321;22;19953;-46
2022/04/23 11:59:23;;;;;;;29.77;17.20;;;;;;;;;;6297493;22;20007;-46
2022/04/23 12:01:48;;;;;;;30.00;17.85;;;;;;;;;;6296765;22;20045;-46
2022/04/23 12:04:14;;;;;;;26.15;17.58;;;;;;;;;;6297242;22;20381;-45
2022/04/23 12:06:46;;;;;;;27.42;16.80;;;;;;;;;;6293951;22;20007;-45
2022/04/23 12:09:12;;;;;;;26.60;16.17;;;;;;;;;;6297272;22;20030;-42
2022/04/23 12:11:37;;;;;;;26.35;17.70;;;;;;;;;;6296628;22;20059;-42
2022/04/23 12:14:03;;;;;;;27.48;16.35;;;;;;;;;;6298256;22;20015;-44
2022/04/23 12:16:38;;;;;;;29.98;17.08;;;;;;;;;;6295054;22;20193;-43
2022/04/23 12:19:04;;;;;;;21.92;15.45;;;;;;;;;;6297242;22;20098;-43
2022/04/23 12:21:29;;;;;;;28.45;16.13;;;;;;;;;;6295697;22;20019;-43
2022/04/23 12:23:55;;;;;;;27.05;17.55;;;;;;;;;;6297374;22;20011;-45
2022/04/23 12:26:21;;;;;;;23.25;15.25;;;;;;;;;;6295387;22;20012;-43
2022/04/23 12:42:24;;;;;;;27.08;15.48;;;;;;;;;;6295630;22;20042;-43
2022/04/23 12:44:52;;;;;;;18.65;12.95;;;;;;;;;;6297204;22;20027;-43
2022/04/23 12:47:28;;;;;;;24.90;15.88;;;;;;;;;;6292183;22;20004;-44
2022/04/23 12:49:58;;;;;;;31.20;16.95;;;;;;;;;;6294195;22;20011;-43
2022/04/23 12:52:23;;;;;;;27.52;15.30;;;;;;;;;;6296279;22;20015;-44
2022/04/23 12:55:07;;;;;;;22.52;14.90;;;;;;;;;;6293810;22;20038;-46
2022/04/23 12:57:33;;;;;;;24.60;15.85;;;;;;;;;;6295923;22;20019;-44
2022/04/23 12:59:58;;;;;;;30.48;15.98;;;;;;;;;;6295190;22;20108;-45
2022/04/23 13:02:23;;;;;;;22.77;14.27;;;;;;;;;;6296552;22;20022;-43
2022/04/23 13:04:49;;;;;;;28.65;15.10;;;;;;;;;;6288465;22;20023;-44
2022/04/23 13:09:58;;;;;;;20.70;14.75;;;;;;;;;;6291119;22;20582;-44
2022/04/23 13:12:24;;;;;;;21.48;14.27;;;;;;;;;;6293526;22;20071;-44
2022/04/23 13:14:49;;;;;;;22.63;13.35;;;;;;;;;;6289062;22;20034;-43
2022/04/23 13:17:15;;;;;;;23.63;13.15;;;;;;;;;;6292654;22;20041;-43
2022/04/23 13:19:40;;;;;;;24.10;14.45;;;;;;;;;;6291294;22;20029;-44
2022/04/23 13:22:05;;;;;;;23.58;13.60;;;;;;;;;;6294062;22;20037;-44
2022/04/23 13:24:30;;;;;;;22.20;13.05;;;;;;;;;;6287086;22;20026;-46
2022/04/23 13:26:57;;;;;;;24.17;13.80;;;;;;;;;;6293502;22;20015;-46
2022/04/23 13:29:22;;;;;;;19.60;13.27;;;;;;;;;;6290135;22;20011;-46
2022/04/23 13:31:48;;;;;;;19.60;12.82;;;;;;;;;;6290631;22;20037;-44
2022/04/23 13:34:13;;;;;;;22.63;13.65;;;;;;;;;;6286575;22;20008;-43
2022/04/23 13:36:38;;;;;;;22.00;13.38;;;;;;;;;;6295165;22;20014;-45
2022/04/23 13:39:04;;;;;;;20.23;13.77;;;;;;;;;;6293196;22;20015;-44
2022/04/23 13:41:29;;;;;;;21.10;13.63;;;;;;;;;;6296201;22;20023;-43
2022/04/23 13:43:55;;;;;;;26.33;14.88;;;;;;;;;;6295885;22;20019;-45
2022/04/23 13:46:20;;;;;;;21.48;14.50;;;;;;;;;;6296228;22;20015;-44
2022/04/23 13:48:45;;;;;;;31.85;14.70;;;;;;;;;;6296481;22;20026;-45
2022/04/23 13:51:10;;;;;;;23.13;13.30;;;;;;;;;;6297115;22;20627;-43
2022/04/23 13:53:36;;;;;;;26.83;15.65;;;;;;;;;;6295900;22;20030;-44
2022/04/23 13:56:02;;;;;;;18.90;10.30;;;;;;;;;;6296378;22;20039;-43
2022/04/23 13:58:27;;;;;;;18.98;11.85;;;;;;;;;;6295836;22;20006;-45
2022/04/23 14:00:52;;;;;;;22.95;12.38;;;;;;;;;;6296983;22;20012;-44
2022/04/23 14:11:29;;;;;;;25.35;13.98;;;;;;;;;;6295277;22;20144;-44
2022/04/23 14:13:54;;;;;;;31.67;15.07;;;;;;;;;;6294205;22;20012;-44
2022/04/23 14:16:20;;;;;;;15.27;9.25;;;;;;;;;;6298449;22;20031;-42
2022/04/23 14:18:45;;;;;;;19.02;13.60;;;;;;;;;;6298094;22;20644;-43
2022/04/23 14:21:10;;;;;;;24.27;13.65;;;;;;;;;;6297610;22;20015;-44
2022/04/23 14:23:36;;;;;;;22.38;12.25;;;;;;;;;;6299855;22;20007;-42
2022/04/23 14:26:01;;;;;;;22.85;13.23;;;;;;;;;;6296507;22;20160;-43
2022/04/23 14:28:26;;;;;;;22.50;12.18;;;;;;;;;;6299360;22;20018;-43
2022/04/23 14:30:52;;;;;;;26.15;14.15;;;;;;;;;;6298655;22;20015;-42
2022/04/23 14:33:17;;;;;;;20.52;12.35;;;;;;;;;;6295259;22;20011;-45
2022/04/23 14:35:43;;;;;;;24.63;13.23;;;;;;;;;;6297354;22;20053;-44
2022/04/23 14:38:08;;;;;;;22.70;13.18;;;;;;;;;;6298977;22;20022;-47
2022/04/23 14:40:34;;;;;;;22.80;12.45;;;;;;;;;;6298194;22;20034;-43
2022/04/23 14:43:00;;;;;;;18.85;12.07;;;;;;;;;;6299537;22;20053;-44
2022/04/23 14:45:28;;;;;;;19.05;12.23;;;;;;;;;;6297062;22;20030;-44
2022/04/23 14:47:54;;;;;;;23.58;12.38;;;;;;;;;;6299591;22;20015;-43
2022/04/23 14:50:19;;;;;;;21.75;12.20;;;;;;;;;;6297616;22;20045;-45
2022/04/23 14:55:29;;;;;;;20.50;12.27;;;;;;;;;;6298057;22;20148;-46
2022/04/23 14:57:54;;;;;;;19.60;13.52;;;;;;;;;;6299664;22;20015;-43
2022/04/23 15:00:19;;;;;;;24.10;13.55;;;;;;;;;;6296261;22;20015;-46
2022/04/23 15:02:45;;;;;;;18.60;11.95;;;;;;;;;;6300060;22;20015;-42
2022/04/23 15:05:10;;;;;;;21.70;12.77;;;;;;;;;;6296431;22;20217;-43
2022/04/23 15:07:35;;;;;;;20.05;11.65;;;;;;;;;;6299258;22;20014;-43
2022/04/23 15:10:01;;;;;;;30.15;13.40;;;;;;;;;;6298008;22;20055;-46
2022/04/23 15:12:27;;;;;;;25.63;14.20;;;;;;;;;;6298989;22;20414;-42
2022/04/23 15:14:52;;;;;;;21.65;12.77;;;;;;;;;;6297298;22;20017;-43